createdAt,value
2022-10-23T00:02:00.438Z,63.16
2022-10-23T00:04:26.809Z,63.10
2022-10-23T00:06:53.165Z,63.39
2022-10-23T00:09:19.525Z,63.67
2022-10-23T00:11:45.876Z,63.23
2022-10-23T00:14:12.252Z,63.13
2022-10-23T00:16:38.591Z,62.54
2022-10-23T00:19:05.020Z,61.91
2022-10-23T00:21:31.363Z,62.41
2022-10-23T00:23:57.853Z,61.98
2022-10-23T00:26:24.217Z,62.04
2022-10-23T00:28:50.580Z,61.72
2022-10-23T00:31:16.933Z,61.46
2022-10-23T00:33:43.309Z,61.93
2022-10-23T00:36:09.665Z,61.70
2022-10-23T00:38:36.016Z,62.11
2022-10-23T00:41:02.361Z,61.88
2022-10-23T00:43:28.719Z,62.36
2022-10-23T00:45:55.084Z,62.49
2022-10-23T00:48:21.457Z,62.74
2022-10-23T00:50:47.801Z,62.63
2022-10-23T00:53:14.199Z,63.08
2022-10-23T00:55:40.545Z,62.92
2022-10-23T00:58:06.908Z,63.32
2022-10-23T01:00:33.290Z,63.82
2022-10-23T01:02:59.649Z,63.74
2022-10-23T01:05:26.007Z,63.73
2022-10-23T01:07:52.365Z,63.67
2022-10-23T01:10:18.736Z,63.52
2022-10-23T01:12:45.081Z,63.54
2022-10-23T01:15:11.429Z,63.34
2022-10-23T01:17:39.693Z,63.42
2022-10-23T01:20:08.762Z,63.30
2022-10-23T01:22:35.135Z,63.12
2022-10-23T01:25:01.494Z,63.44
2022-10-23T01:27:27.853Z,64.24
2022-10-23T01:29:54.203Z,65.92
2022-10-23T01:32:20.565Z,65.79
2022-10-23T01:34:46.933Z,65.65
2022-10-23T01:37:13.312Z,65.84
2022-10-23T01:39:39.674Z,65.76
2022-10-23T01:42:06.055Z,64.81
2022-10-23T01:44:32.398Z,64.77
2022-10-23T01:46:58.756Z,64.72
2022-10-23T01:49:25.091Z,65.75
2022-10-23T01:51:51.449Z,65.75
2022-10-23T01:54:17.809Z,65.34
2022-10-23T01:56:44.178Z,65.67
2022-10-23T01:59:10.541Z,66.54
2022-10-23T02:01:37.013Z,67.00
2022-10-23T02:04:03.470Z,67.59
2022-10-23T02:06:29.824Z,67.09
2022-10-23T02:08:56.193Z,67.04
2022-10-23T02:11:22.557Z,67.31
2022-10-23T02:13:48.911Z,66.33
2022-10-23T02:16:15.267Z,66.08
2022-10-23T02:18:41.640Z,65.56
2022-10-23T02:21:07.989Z,65.93
2022-10-23T02:23:34.330Z,65.83
2022-10-23T02:26:00.693Z,65.48
2022-10-23T02:28:27.066Z,65.07
2022-10-23T02:30:53.417Z,65.18
2022-10-23T02:33:19.765Z,65.67
2022-10-23T02:35:46.126Z,65.85
2022-10-23T02:38:12.499Z,65.23
2022-10-23T02:40:38.865Z,65.16
2022-10-23T02:43:05.202Z,64.67
2022-10-23T02:45:31.593Z,65.41
2022-10-23T02:47:58.005Z,65.57
2022-10-23T02:50:24.369Z,65.41
2022-10-23T02:52:50.731Z,66.13
2022-10-23T02:55:17.085Z,66.67
2022-10-23T02:57:43.645Z,66.89
2022-10-23T03:00:10.286Z,67.27
2022-10-23T03:02:36.653Z,67.18
2022-10-23T03:05:03.004Z,67.27
2022-10-23T03:07:29.349Z,67.51
2022-10-23T03:09:55.716Z,68.05
2022-10-23T03:12:22.057Z,68.25
2022-10-23T03:14:48.435Z,68.22
2022-10-23T03:17:14.774Z,68.62
2022-10-23T03:19:41.142Z,68.60
2022-10-23T03:22:07.481Z,68.30
2022-10-23T03:24:33.845Z,67.41
2022-10-23T03:27:00.203Z,67.26
2022-10-23T03:29:26.555Z,66.94
2022-10-23T03:31:52.941Z,66.48
2022-10-23T03:34:19.277Z,66.67
2022-10-23T03:36:45.644Z,66.53
2022-10-23T03:39:12.003Z,66.19
2022-10-23T03:41:38.367Z,66.00
2022-10-23T03:46:35.978Z,67.57
2022-10-23T03:49:02.344Z,67.81
2022-10-23T03:51:28.726Z,67.52
2022-10-23T03:53:55.092Z,67.91
2022-10-23T03:56:21.429Z,68.28
2022-10-23T03:58:47.811Z,68.75
2022-10-23T04:01:14.237Z,68.84
2022-10-23T04:03:40.633Z,65.56
2022-10-23T04:06:06.983Z,63.35
2022-10-23T04:08:33.341Z,64.48
2022-10-23T04:10:59.745Z,65.69
2022-10-23T04:13:26.107Z,68.93
2022-10-23T04:15:52.471Z,66.76
2022-10-23T04:18:18.852Z,67.81
2022-10-23T04:20:45.219Z,66.87
2022-10-23T04:23:11.625Z,67.51
2022-10-23T04:25:38.041Z,67.41
2022-10-23T04:28:04.409Z,67.20
2022-10-23T04:30:30.787Z,66.66
2022-10-23T04:32:57.144Z,66.98
2022-10-23T04:35:23.515Z,67.87
2022-10-23T04:37:49.867Z,68.15
2022-10-23T04:40:16.221Z,68.71
2022-10-23T04:42:42.794Z,68.41
2022-10-23T04:45:09.346Z,68.30
2022-10-23T04:47:35.707Z,68.27
2022-10-23T04:50:02.066Z,68.72
2022-10-23T04:52:28.442Z,68.46
2022-10-23T04:54:54.794Z,68.41
2022-10-23T04:57:21.144Z,67.75
2022-10-23T04:59:47.498Z,68.02
2022-10-23T05:02:13.844Z,69.17
2022-10-23T05:04:40.213Z,69.21
2022-10-23T05:07:06.572Z,68.03
2022-10-23T05:09:32.943Z,67.74
2022-10-23T05:11:59.305Z,68.75
2022-10-23T05:14:25.665Z,69.38
2022-10-23T05:16:52.019Z,68.69
2022-10-23T05:19:21.953Z,69.00
2022-10-23T05:21:50.577Z,69.72
2022-10-23T05:24:16.945Z,69.27
2022-10-23T05:26:43.308Z,68.83
2022-10-23T05:29:09.659Z,68.66
2022-10-23T05:31:36.019Z,68.74
2022-10-23T05:34:02.393Z,69.00
2022-10-23T05:36:28.754Z,69.10
2022-10-23T05:38:55.142Z,68.92
2022-10-23T05:41:21.491Z,69.00
2022-10-23T05:43:47.880Z,69.44
2022-10-23T05:46:14.257Z,69.67
2022-10-23T05:48:40.619Z,69.14
2022-10-23T05:51:06.995Z,69.01
2022-10-23T05:53:34.561Z,68.88
2022-10-23T05:56:02.543Z,69.25
2022-10-23T05:58:28.933Z,69.18
2022-10-23T06:00:55.302Z,70.68
2022-10-23T06:03:21.648Z,69.66
2022-10-23T06:05:47.988Z,69.13
2022-10-23T06:08:14.347Z,68.55
2022-10-23T06:10:40.695Z,67.74
2022-10-23T06:13:07.065Z,68.20
2022-10-23T06:15:33.407Z,68.03
2022-10-23T06:17:59.802Z,69.30
2022-10-23T06:20:28.010Z,69.54
2022-10-23T06:22:55.232Z,68.97
2022-10-23T06:25:21.607Z,68.84
2022-10-23T06:27:47.955Z,68.64
2022-10-23T06:30:14.319Z,68.60
2022-10-23T06:32:41.238Z,68.69
2022-10-23T06:35:07.899Z,68.49
2022-10-23T06:37:34.281Z,69.11
2022-10-23T06:40:00.661Z,69.15
2022-10-23T06:42:27.025Z,68.91
2022-10-23T06:44:53.393Z,68.95
2022-10-23T06:47:19.771Z,69.26
2022-10-23T06:49:46.135Z,68.47
2022-10-23T06:52:18.512Z,68.94
2022-10-23T06:54:58.885Z,68.88
2022-10-23T06:57:25.251Z,69.08
2022-10-23T06:59:51.600Z,68.63
2022-10-23T07:02:17.988Z,68.01
2022-10-23T07:04:44.326Z,67.98
2022-10-23T07:07:10.708Z,67.58
2022-10-23T07:09:37.061Z,67.34
2022-10-23T07:12:03.421Z,67.59
2022-10-23T07:14:29.773Z,67.37
2022-10-23T07:16:56.133Z,67.22
2022-10-23T07:19:22.489Z,67.68
2022-10-23T07:21:48.838Z,67.33
2022-10-23T07:24:15.192Z,67.81
2022-10-23T07:26:41.607Z,68.51
2022-10-23T07:29:08.056Z,69.20
2022-10-23T07:31:34.410Z,70.25
2022-10-23T07:34:00.779Z,69.77
2022-10-23T07:36:27.138Z,70.10
2022-10-23T07:38:53.506Z,67.63
2022-10-23T07:41:19.864Z,66.51
2022-10-23T07:43:46.211Z,65.79
2022-10-23T07:46:12.561Z,66.74
2022-10-23T07:48:38.953Z,66.75
2022-10-23T07:51:05.293Z,66.94
2022-10-23T07:53:31.657Z,66.96
2022-10-23T07:55:58.034Z,67.02
2022-10-23T07:58:24.412Z,67.88
2022-10-23T08:00:50.775Z,68.15
2022-10-23T08:03:17.119Z,69.02
2022-10-23T08:05:43.489Z,69.33
2022-10-23T08:08:09.923Z,71.15
2022-10-23T08:10:36.262Z,71.93
2022-10-23T08:13:02.652Z,71.73
2022-10-23T08:15:29.015Z,70.96
2022-10-23T08:17:55.373Z,70.43
2022-10-23T08:20:21.740Z,71.41
2022-10-23T08:22:48.083Z,71.27
2022-10-23T08:25:14.491Z,71.95
2022-10-23T08:27:41.141Z,71.72
2022-10-23T08:30:07.771Z,71.18
2022-10-23T08:32:34.124Z,69.96
2022-10-23T08:35:00.482Z,69.79
2022-10-23T08:37:26.831Z,69.41
2022-10-23T08:39:53.428Z,69.28
2022-10-23T08:42:19.903Z,68.13
2022-10-23T08:44:46.283Z,66.07
2022-10-23T08:47:12.638Z,68.14
2022-10-23T08:49:39.000Z,67.44
2022-10-23T08:52:06.507Z,66.99
2022-10-23T08:54:34.487Z,68.18
2022-10-23T08:57:00.835Z,67.92
2022-10-23T08:59:27.194Z,67.75
2022-10-23T09:01:53.648Z,66.39
2022-10-23T09:04:20.048Z,66.53
2022-10-23T09:06:46.391Z,66.56
2022-10-23T09:09:12.743Z,65.60
2022-10-23T09:11:39.099Z,65.52
2022-10-23T09:14:05.467Z,63.63
2022-10-23T09:16:31.822Z,64.89
2022-10-23T09:18:58.184Z,62.84
2022-10-23T09:21:24.569Z,61.48
2022-10-23T09:23:50.917Z,61.11
2022-10-23T09:26:17.278Z,63.11
2022-10-23T09:28:43.664Z,63.96
2022-10-23T09:31:10.024Z,63.10
2022-10-23T09:33:36.372Z,63.73
2022-10-23T09:36:02.728Z,64.37
2022-10-23T09:38:29.098Z,62.97
2022-10-23T09:40:55.450Z,62.76
2022-10-23T09:43:21.826Z,62.63
2022-10-23T09:45:48.201Z,63.36
2022-10-23T09:48:15.137Z,64.29
2022-10-23T09:50:41.517Z,64.30
2022-10-23T09:53:07.859Z,64.81
2022-10-23T09:55:34.229Z,65.89
2022-10-23T09:58:00.601Z,66.14
2022-10-23T10:00:26.969Z,67.25
2022-10-23T10:02:53.363Z,67.12
2022-10-23T10:05:19.806Z,67.16
2022-10-23T10:07:46.214Z,68.26
2022-10-23T10:10:12.575Z,69.13
2022-10-23T10:12:38.918Z,69.08
2022-10-23T10:15:05.267Z,70.66
2022-10-23T10:17:31.620Z,69.59
2022-10-23T10:19:57.968Z,71.13
2022-10-23T10:22:24.343Z,70.24
2022-10-23T10:24:50.689Z,69.12
2022-10-23T10:27:17.082Z,68.58
2022-10-23T10:29:43.445Z,67.97
2022-10-23T10:32:09.802Z,68.24
2022-10-23T10:34:36.197Z,68.38
2022-10-23T10:37:02.561Z,66.68
2022-10-23T10:39:28.947Z,66.60
2022-10-23T10:41:55.343Z,65.01
2022-10-23T10:44:21.692Z,65.29
2022-10-23T10:46:48.035Z,65.79
2022-10-23T10:49:14.398Z,67.12
2022-10-23T10:51:40.781Z,67.86
2022-10-23T10:54:07.142Z,67.97
2022-10-23T10:56:33.490Z,68.88
2022-10-23T10:58:59.833Z,70.98
2022-10-23T11:01:26.317Z,72.08
2022-10-23T11:03:52.747Z,73.20
2022-10-23T11:06:19.099Z,72.56
2022-10-23T11:08:57.207Z,70.79
2022-10-23T11:11:30.305Z,68.34
2022-10-23T11:13:56.650Z,68.93
2022-10-23T11:16:23.009Z,68.10
2022-10-23T11:18:49.364Z,68.77
2022-10-23T11:21:15.781Z,69.97
2022-10-23T11:23:42.150Z,69.69
2022-10-23T11:26:08.534Z,69.29
2022-10-23T11:28:34.898Z,69.74
2022-10-23T11:31:01.277Z,67.61
2022-10-23T11:33:27.653Z,67.76
2022-10-23T11:35:54.024Z,67.73
2022-10-23T11:38:20.443Z,67.58
2022-10-23T11:40:46.852Z,67.13
2022-10-23T11:43:13.248Z,67.83
2022-10-23T11:45:39.587Z,66.56
2022-10-23T11:48:05.943Z,66.28
2022-10-23T11:50:32.323Z,66.90
2022-10-23T11:53:15.602Z,66.97
2022-10-23T11:55:42.554Z,68.53
2022-10-23T11:58:08.913Z,69.93
2022-10-23T12:00:35.270Z,70.00
2022-10-23T12:03:01.702Z,69.91
2022-10-23T12:05:28.138Z,69.23
2022-10-23T12:07:54.506Z,69.23
2022-10-23T12:10:20.864Z,68.61
2022-10-23T12:12:47.298Z,68.27
2022-10-23T12:15:13.678Z,68.24
2022-10-23T12:17:40.181Z,68.07
2022-10-23T12:20:06.631Z,67.58
2022-10-23T12:22:32.974Z,67.21
2022-10-23T12:24:59.339Z,67.78
2022-10-23T12:27:25.733Z,68.19
2022-10-23T12:29:52.073Z,68.19
2022-10-23T12:32:18.456Z,67.97
2022-10-23T12:34:44.792Z,68.17
2022-10-23T12:37:11.157Z,66.84
2022-10-23T12:39:37.524Z,66.51
2022-10-23T12:42:03.902Z,66.13
2022-10-23T12:44:30.278Z,66.42
2022-10-23T12:46:56.640Z,66.94
2022-10-23T12:49:22.997Z,66.90
2022-10-23T12:51:49.358Z,66.55
2022-10-23T12:54:15.746Z,67.67
2022-10-23T12:56:42.093Z,68.34
2022-10-23T12:59:08.459Z,67.96
2022-10-23T13:01:34.944Z,66.98
2022-10-23T13:04:01.399Z,69.06
2022-10-23T13:06:27.750Z,70.25
2022-10-23T13:08:54.108Z,71.68
2022-10-23T13:11:20.469Z,73.21
2022-10-23T13:13:46.824Z,72.17
2022-10-23T13:16:13.160Z,71.97
2022-10-23T13:18:39.526Z,72.51
2022-10-23T13:21:05.882Z,72.90
2022-10-23T13:23:32.251Z,72.84
2022-10-23T13:25:58.602Z,72.38
2022-10-23T13:28:25.013Z,73.13
2022-10-23T13:30:51.361Z,72.15
2022-10-23T13:33:17.721Z,72.41
2022-10-23T13:35:44.085Z,72.57
2022-10-23T13:38:10.445Z,72.63
2022-10-23T13:40:36.817Z,72.42
2022-10-23T13:43:03.175Z,72.14
2022-10-23T13:45:29.531Z,70.10
2022-10-23T13:47:55.864Z,71.26
2022-10-23T13:50:22.248Z,71.57
2022-10-23T13:52:48.610Z,70.74
2022-10-23T13:55:14.960Z,72.11
2022-10-23T13:57:41.560Z,71.50
2022-10-23T14:00:08.088Z,71.68
2022-10-23T14:02:34.488Z,71.54
2022-10-23T14:05:00.899Z,69.22
2022-10-23T14:07:27.245Z,67.01
2022-10-23T14:09:53.593Z,64.21
2022-10-23T14:12:19.969Z,62.30
2022-10-23T14:14:46.328Z,67.38
2022-10-23T14:17:12.687Z,68.14
2022-10-23T14:19:39.043Z,70.61
2022-10-23T14:22:05.402Z,71.86
2022-10-23T14:24:31.757Z,70.98
2022-10-23T14:26:58.094Z,71.92
2022-10-23T14:29:24.686Z,71.59
2022-10-23T14:31:51.079Z,71.18
2022-10-23T14:34:17.491Z,67.09
2022-10-23T14:36:50.184Z,72.29
2022-10-23T14:39:22.949Z,71.22
2022-10-23T14:41:49.309Z,71.50
2022-10-23T14:44:15.664Z,72.98
2022-10-23T14:46:42.029Z,72.25
2022-10-23T14:49:08.372Z,72.63
2022-10-23T14:51:34.745Z,73.93
2022-10-23T14:54:01.102Z,74.54
2022-10-23T14:56:27.520Z,74.76
2022-10-23T14:58:53.863Z,74.37
2022-10-23T15:01:20.349Z,74.01
2022-10-23T15:03:46.813Z,73.21
2022-10-23T15:06:17.525Z,72.95
2022-10-23T15:08:44.775Z,71.65
2022-10-23T15:11:12.640Z,73.51
2022-10-23T15:13:39.278Z,73.29
2022-10-23T15:16:05.631Z,72.83
2022-10-23T15:18:32.026Z,72.87
2022-10-23T15:20:58.411Z,72.36
2022-10-23T15:23:24.784Z,70.44
2022-10-23T15:25:51.159Z,68.68
2022-10-23T15:28:17.513Z,67.66
2022-10-23T15:30:43.891Z,72.98
2022-10-23T15:33:10.253Z,73.23
2022-10-23T15:35:36.608Z,71.78
2022-10-23T15:38:02.971Z,71.74
2022-10-23T15:40:29.334Z,71.57
2022-10-23T15:42:55.695Z,71.17
2022-10-23T15:45:22.059Z,71.29
2022-10-23T15:47:48.402Z,70.87
2022-10-23T15:50:14.764Z,70.27
2022-10-23T15:52:41.232Z,69.77
2022-10-23T15:55:07.837Z,69.99
2022-10-23T15:57:34.190Z,68.72
2022-10-23T16:00:00.674Z,64.31
2022-10-23T16:02:27.173Z,59.90
2022-10-23T16:04:53.676Z,57.99
2022-10-23T16:07:20.107Z,57.11
2022-10-23T16:09:46.446Z,57.39
2022-10-23T16:12:12.830Z,56.85
2022-10-23T16:14:39.184Z,57.15
2022-10-23T16:17:05.583Z,57.81
2022-10-23T16:19:31.978Z,59.54
2022-10-23T16:21:58.354Z,57.45
2022-10-23T16:24:24.725Z,57.42
2022-10-23T16:26:51.064Z,58.72
2022-10-23T16:29:17.419Z,58.19
2022-10-23T16:31:43.781Z,59.75
2022-10-23T16:34:10.131Z,60.41
2022-10-23T16:36:36.482Z,60.86
2022-10-23T16:39:02.820Z,61.86
2022-10-23T16:41:29.183Z,61.13
2022-10-23T16:43:55.545Z,60.78
2022-10-23T16:46:21.925Z,61.31
2022-10-23T16:48:48.291Z,60.65
2022-10-23T16:51:14.654Z,60.91
2022-10-23T16:53:40.990Z,61.57
2022-10-23T16:56:07.333Z,61.94
2022-10-23T16:58:33.708Z,62.52
2022-10-23T17:01:00.206Z,63.16
2022-10-23T17:03:26.668Z,63.93
2022-10-23T17:05:53.026Z,63.80
2022-10-23T17:08:19.394Z,64.21
2022-10-23T17:10:45.759Z,63.68
2022-10-23T17:13:12.099Z,63.89
2022-10-23T17:18:09.725Z,63.40
2022-10-23T17:20:36.094Z,63.59
2022-10-23T17:23:02.439Z,63.96
2022-10-23T17:25:28.816Z,64.61
2022-10-23T17:27:55.186Z,64.74
2022-10-23T17:30:21.540Z,65.53
2022-10-23T17:32:47.997Z,66.50
2022-10-23T17:35:14.383Z,66.99
2022-10-23T17:37:40.743Z,66.67
2022-10-23T17:40:07.110Z,67.30
2022-10-23T17:42:33.469Z,67.24
2022-10-23T17:44:59.829Z,67.25
2022-10-23T17:47:26.221Z,68.54
2022-10-23T17:49:52.572Z,68.17
2022-10-23T17:52:18.937Z,68.57
2022-10-23T17:54:45.278Z,69.16
2022-10-23T17:57:11.700Z,69.53
2022-10-23T17:59:38.125Z,70.19
2022-10-23T18:02:04.550Z,70.65
2022-10-23T18:04:30.995Z,70.63
2022-10-23T18:06:57.353Z,70.39
2022-10-23T18:09:23.712Z,70.14
2022-10-23T18:11:50.076Z,70.94
2022-10-23T18:14:16.475Z,70.77
2022-10-23T18:16:42.832Z,69.35
2022-10-23T18:19:09.175Z,69.78
2022-10-23T18:21:35.530Z,69.62
2022-10-23T18:24:01.879Z,68.73
2022-10-23T18:26:28.235Z,69.55
2022-10-23T18:28:54.597Z,69.05
2022-10-23T18:31:20.957Z,71.07
2022-10-23T18:33:47.327Z,71.12
2022-10-23T18:36:13.685Z,70.80
2022-10-23T18:38:40.036Z,71.30
2022-10-23T18:41:06.450Z,71.06
2022-10-23T18:43:43.091Z,71.14
2022-10-23T18:46:10.317Z,70.83
2022-10-23T18:48:36.729Z,69.15
2022-10-23T18:51:03.099Z,71.38
2022-10-23T18:53:29.486Z,72.34
2022-10-23T18:55:55.860Z,72.55
2022-10-23T18:58:22.249Z,71.72
2022-10-23T19:00:48.612Z,71.91
2022-10-23T19:03:15.048Z,73.53
2022-10-23T19:05:41.415Z,73.85
2022-10-23T19:08:07.809Z,75.64
2022-10-23T19:10:34.213Z,69.97
2022-10-23T19:13:00.593Z,72.61
2022-10-23T19:15:26.951Z,72.51
2022-10-23T19:17:53.303Z,71.43
2022-10-23T19:20:19.730Z,73.43
2022-10-23T19:22:46.383Z,70.55
2022-10-23T19:25:13.183Z,72.89
2022-10-23T19:27:39.559Z,72.55
2022-10-23T19:30:06.020Z,71.45
2022-10-23T19:32:32.393Z,71.84
2022-10-23T19:34:58.796Z,72.13
2022-10-23T19:37:25.227Z,71.70
2022-10-23T19:39:51.588Z,73.69
2022-10-23T19:42:20.098Z,74.90
2022-10-23T19:44:46.468Z,75.73
2022-10-23T19:47:12.830Z,76.35
2022-10-23T19:49:39.186Z,75.79
2022-10-23T19:52:05.541Z,75.26
2022-10-23T19:54:31.920Z,74.28
2022-10-23T19:56:58.312Z,74.95
2022-10-23T19:59:24.659Z,72.38
2022-10-23T20:01:51.165Z,70.82
2022-10-23T20:04:17.582Z,70.35
2022-10-23T20:06:43.942Z,67.95
2022-10-23T20:09:10.302Z,67.08
2022-10-23T20:11:36.665Z,66.84
2022-10-23T20:14:03.042Z,66.16
2022-10-23T20:16:29.407Z,66.00
2022-10-23T20:18:55.759Z,66.52
2022-10-23T20:21:22.137Z,67.02
2022-10-23T20:23:48.505Z,67.65
2022-10-23T20:26:14.870Z,66.33
2022-10-23T20:28:41.226Z,67.01
2022-10-23T20:31:07.584Z,69.02
2022-10-23T20:33:33.947Z,69.48
2022-10-23T20:36:00.288Z,69.11
2022-10-23T20:38:26.690Z,69.70
2022-10-23T20:40:53.063Z,69.24
2022-10-23T20:43:19.429Z,69.15
2022-10-23T20:45:45.792Z,68.56
2022-10-23T20:48:12.141Z,68.51
2022-10-23T20:50:38.516Z,67.51
2022-10-23T20:53:04.876Z,66.45
2022-10-23T20:55:31.250Z,66.56
2022-10-23T20:57:57.610Z,68.77
2022-10-23T21:00:23.969Z,69.88
2022-10-23T21:02:52.676Z,70.60
2022-10-23T21:05:19.276Z,71.25
2022-10-23T21:07:45.650Z,70.95
2022-10-23T21:10:12.010Z,71.20
2022-10-23T21:12:38.377Z,70.52
2022-10-23T21:15:04.723Z,71.58
2022-10-23T21:19:58.344Z,70.53
2022-10-23T21:22:24.712Z,70.69
2022-10-23T21:24:51.081Z,70.73
2022-10-23T21:27:17.425Z,70.30
2022-10-23T21:29:43.774Z,70.82
2022-10-23T21:32:10.119Z,71.38
2022-10-23T21:34:36.478Z,71.11
2022-10-23T21:37:18.120Z,70.56
2022-10-23T21:39:44.520Z,70.71
2022-10-23T21:42:10.874Z,71.20
2022-10-23T21:44:37.243Z,71.36
2022-10-23T21:47:03.634Z,70.21
2022-10-23T21:49:29.979Z,70.91
2022-10-23T21:51:56.333Z,71.23
2022-10-23T21:54:22.687Z,69.25
2022-10-23T21:56:49.062Z,64.57
2022-10-23T21:59:15.411Z,66.92
2022-10-23T22:01:41.854Z,68.09
2022-10-23T22:04:08.288Z,70.24
2022-10-23T22:06:34.642Z,69.92
2022-10-23T22:09:00.997Z,69.73
2022-10-23T22:11:27.358Z,69.54
2022-10-23T22:13:53.712Z,69.89
2022-10-23T22:16:20.074Z,69.26
2022-10-23T22:18:46.864Z,69.93
2022-10-23T22:21:13.228Z,69.65
2022-10-23T22:23:39.576Z,68.89
2022-10-23T22:26:05.981Z,66.30
2022-10-23T22:28:32.345Z,66.66
2022-10-23T22:30:58.708Z,68.06
2022-10-23T22:33:25.167Z,69.16
2022-10-23T22:35:51.527Z,68.12
2022-10-23T22:38:17.880Z,71.16
2022-10-23T22:40:46.642Z,73.74
2022-10-23T22:43:13.210Z,75.36
2022-10-23T22:45:39.577Z,75.54
